sensor_id;sensor_type;location;lat;lon;timestamp;pressure;altitude;pressure_sealevel;temperature;humidity
55538;BME280;41383;51.418;7.286;2023-04-02T00:00:31;99084.72;;;8.86;86.79
55538;BME280;41383;51.418;7.286;2023-04-02T00:02:59;99083.09;;;8.74;85.91
55538;BME280;41383;51.418;7.286;2023-04-02T00:08:17;99096.16;;;8.93;87.06
55538;BME280;41383;51.418;7.286;2023-04-02T00:10:50;99103.78;;;9.22;85.23
55538;BME280;41383;51.418;7.286;2023-04-02T00:13:20;99101.59;;;8.93;85.10
55538;BME280;41383;51.418;7.286;2023-04-02T00:15:48;99104.88;;;9.01;85.79
55538;BME280;41383;51.418;7.286;2023-04-02T00:18:17;99120.06;;;8.91;85.76
55538;BME280;41383;51.418;7.286;2023-04-02T00:20:47;99125.09;;;8.46;86.08
55538;BME280;41383;51.418;7.286;2023-04-02T00:23:15;99130.81;;;8.49;86.50
55538;BME280;41383;51.418;7.286;2023-04-02T00:25:42;99136.88;;;8.62;85.85
55538;BME280;41383;51.418;7.286;2023-04-02T00:28:14;99140.03;;;8.48;85.97
55538;BME280;41383;51.418;7.286;2023-04-02T00:30:52;99145.06;;;8.72;85.54
55538;BME280;41383;51.418;7.286;2023-04-02T00:33:21;99143.97;;;8.68;84.87
55538;BME280;41383;51.418;7.286;2023-04-02T00:35:48;99149.72;;;8.93;84.88
55538;BME280;41383;51.418;7.286;2023-04-02T00:40:51;99170.09;;;8.95;84.57
55538;BME280;41383;51.418;7.286;2023-04-02T00:43:19;99168.69;;;8.77;84.80
55538;BME280;41383;51.418;7.286;2023-04-02T00:45:45;99174.72;;;8.90;84.90
55538;BME280;41383;51.418;7.286;2023-04-02T00:48:36;99186.44;;;9.06;84.12
55538;BME280;41383;51.418;7.286;2023-04-02T00:51:30;99184.78;;;8.94;83.55
55538;BME280;41383;51.418;7.286;2023-04-02T00:54:00;99178.22;;;8.80;83.14
55538;BME280;41383;51.418;7.286;2023-04-02T00:56:31;99190.47;;;8.28;84.66
55538;BME280;41383;51.418;7.286;2023-04-02T00:58:57;99204.94;;;7.96;86.01
55538;BME280;41383;51.418;7.286;2023-04-02T01:01:28;99203.16;;;8.12;86.12
55538;BME280;41383;51.418;7.286;2023-04-02T01:04:00;99217.56;;;8.18;85.14
55538;BME280;41383;51.418;7.286;2023-04-02T01:06:37;99210.81;;;8.21;84.65
55538;BME280;41383;51.418;7.286;2023-04-02T01:09:08;99219.72;;;8.16;85.91
55538;BME280;41383;51.418;7.286;2023-04-02T01:12:00;99226.28;;;8.20;85.10
55538;BME280;41383;51.418;7.286;2023-04-02T01:14:43;99233.22;;;8.44;84.52
55538;BME280;41383;51.418;7.286;2023-04-02T01:17:38;99235.91;;;7.95;84.91
55538;BME280;41383;51.418;7.286;2023-04-02T01:28:15;99257.91;;;8.42;83.93
55538;BME280;41383;51.418;7.286;2023-04-02T01:30:51;99264.19;;;8.04;84.85
55538;BME280;41383;51.418;7.286;2023-04-02T01:33:19;99263.50;;;8.20;83.75
55538;BME280;41383;51.418;7.286;2023-04-02T01:35:48;99266.53;;;8.28;84.03
55538;BME280;41383;51.418;7.286;2023-04-02T01:38:21;99278.00;;;8.36;83.34
55538;BME280;41383;51.418;7.286;2023-04-02T01:40:58;99277.47;;;8.39;83.26
55538;BME280;41383;51.418;7.286;2023-04-02T01:43:33;99279.19;;;8.56;82.77
55538;BME280;41383;51.418;7.286;2023-04-02T01:46:22;99291.75;;;8.62;82.01
55538;BME280;41383;51.418;7.286;2023-04-02T01:48:49;99287.22;;;8.35;82.11
55538;BME280;41383;51.418;7.286;2023-04-02T01:51:39;99300.88;;;8.50;82.30
55538;BME280;41383;51.418;7.286;2023-04-02T01:54:06;99304.41;;;8.46;82.04
55538;BME280;41383;51.418;7.286;2023-04-02T01:56:33;99303.22;;;8.31;81.78
55538;BME280;41383;51.418;7.286;2023-04-02T01:58:59;99316.41;;;8.55;81.61
55538;BME280;41383;51.418;7.286;2023-04-02T02:01:31;99323.75;;;8.55;80.84
55538;BME280;41383;51.418;7.286;2023-04-02T02:04:00;99326.28;;;8.28;81.94
55538;BME280;41383;51.418;7.286;2023-04-02T02:06:26;99327.28;;;8.17;81.87
55538;BME280;41383;51.418;7.286;2023-04-02T02:08:53;99335.78;;;7.65;83.45
55538;BME280;41383;51.418;7.286;2023-04-02T02:11:23;99347.56;;;7.26;85.13
55538;BME280;41383;51.418;7.286;2023-04-02T02:13:58;99349.75;;;7.52;84.90
55538;BME280;41383;51.418;7.286;2023-04-02T02:16:25;99341.75;;;7.67;83.70
55538;BME280;41383;51.418;7.286;2023-04-02T02:18:53;99341.28;;;8.03;83.69
55538;BME280;41383;51.418;7.286;2023-04-02T02:21:27;99351.19;;;8.20;81.85
55538;BME280;41383;51.418;7.286;2023-04-02T02:23:55;99351.00;;;8.27;81.67
55538;BME280;41383;51.418;7.286;2023-04-02T02:26:22;99360.44;;;8.19;81.59
55538;BME280;41383;51.418;7.286;2023-04-02T02:28:51;99359.13;;;7.94;81.36
55538;BME280;41383;51.418;7.286;2023-04-02T02:31:22;99364.78;;;8.20;81.81
55538;BME280;41383;51.418;7.286;2023-04-02T02:33:55;99363.25;;;8.02;81.84
55538;BME280;41383;51.418;7.286;2023-04-02T02:36:42;99371.13;;;7.70;81.97
55538;BME280;41383;51.418;7.286;2023-04-02T02:42:03;99387.72;;;7.74;82.35
55538;BME280;41383;51.418;7.286;2023-04-02T02:44:34;99400.78;;;7.55;82.51
55538;BME280;41383;51.418;7.286;2023-04-02T02:47:04;99400.72;;;7.72;81.92
55538;BME280;41383;51.418;7.286;2023-04-02T02:49:40;99404.00;;;7.74;81.61
55538;BME280;41383;51.418;7.286;2023-04-02T02:54:37;99411.31;;;7.51;82.80
55538;BME280;41383;51.418;7.286;2023-04-02T02:57:07;99416.03;;;7.83;80.55
55538;BME280;41383;51.418;7.286;2023-04-02T02:59:34;99417.09;;;7.82;80.54
55538;BME280;41383;51.418;7.286;2023-04-02T03:02:01;99429.28;;;7.80;80.18
55538;BME280;41383;51.418;7.286;2023-04-02T03:04:28;99434.09;;;7.73;81.02
55538;BME280;41383;51.418;7.286;2023-04-02T03:07:01;99440.97;;;7.80;80.57
55538;BME280;41383;51.418;7.286;2023-04-02T03:09:52;99439.00;;;7.31;81.46
55538;BME280;41383;51.418;7.286;2023-04-02T03:15:01;99453.03;;;7.05;81.76
55538;BME280;41383;51.418;7.286;2023-04-02T03:18:01;99464.66;;;7.63;81.55
55538;BME280;41383;51.418;7.286;2023-04-02T03:20:47;99467.78;;;7.32;81.10
55538;BME280;41383;51.418;7.286;2023-04-02T03:23:38;99464.81;;;7.33;81.08
55538;BME280;41383;51.418;7.286;2023-04-02T03:26:22;99468.16;;;7.41;81.88
55538;BME280;41383;51.418;7.286;2023-04-02T03:28:55;99474.16;;;7.03;81.66
55538;BME280;41383;51.418;7.286;2023-04-02T03:31:25;99481.28;;;7.09;82.00
55538;BME280;41383;51.418;7.286;2023-04-02T03:34:01;99486.41;;;7.28;81.25
55538;BME280;41383;51.418;7.286;2023-04-02T03:36:35;99499.44;;;7.09;82.46
55538;BME280;41383;51.418;7.286;2023-04-02T03:41:56;99506.59;;;6.98;82.47
55538;BME280;41383;51.418;7.286;2023-04-02T03:44:36;99508.41;;;6.92;82.12
55538;BME280;41383;51.418;7.286;2023-04-02T03:47:10;99516.44;;;7.04;82.28
55538;BME280;41383;51.418;7.286;2023-04-02T03:49:45;99524.00;;;7.02;81.49
55538;BME280;41383;51.418;7.286;2023-04-02T03:52:15;99519.78;;;7.46;80.98
55538;BME280;41383;51.418;7.286;2023-04-02T03:54:44;99533.78;;;6.69;81.09
55538;BME280;41383;51.418;7.286;2023-04-02T03:57:33;99539.94;;;6.81;82.04
55538;BME280;41383;51.418;7.286;2023-04-02T04:00:09;99537.81;;;7.00;81.24
55538;BME280;41383;51.418;7.286;2023-04-02T04:02:47;99542.97;;;7.19;81.94
55538;BME280;41383;51.418;7.286;2023-04-02T04:05:34;99540.69;;;7.11;81.69
55538;BME280;41383;51.418;7.286;2023-04-02T04:08:04;99550.28;;;7.19;81.17
55538;BME280;41383;51.418;7.286;2023-04-02T04:10:30;99556.69;;;7.12;80.94
55538;BME280;41383;51.418;7.286;2023-04-02T04:13:03;99563.47;;;6.63;81.64
55538;BME280;41383;51.418;7.286;2023-04-02T04:18:04;99577.06;;;6.98;81.52
55538;BME280;41383;51.418;7.286;2023-04-02T04:21:12;99579.69;;;6.93;81.58
55538;BME280;41383;51.418;7.286;2023-04-02T04:23:40;99587.28;;;7.25;81.09
55538;BME280;41383;51.418;7.286;2023-04-02T04:26:45;99589.00;;;7.71;79.23
55538;BME280;41383;51.418;7.286;2023-04-02T04:31:48;99591.94;;;6.95;80.35
55538;BME280;41383;51.418;7.286;2023-04-02T04:34:41;99616.63;;;6.82;81.86
55538;BME280;41383;51.418;7.286;2023-04-02T04:37:18;99615.50;;;6.95;81.40
55538;BME280;41383;51.418;7.286;2023-04-02T04:40:02;99621.28;;;7.33;79.73
55538;BME280;41383;51.418;7.286;2023-04-02T04:42:33;99638.16;;;6.88;81.10
55538;BME280;41383;51.418;7.286;2023-04-02T04:45:07;99638.38;;;7.16;79.39
55538;BME280;41383;51.418;7.286;2023-04-02T04:47:53;99637.06;;;7.19;79.13
55538;BME280;41383;51.418;7.286;2023-04-02T04:50:31;99646.53;;;7.33;79.02
55538;BME280;41383;51.418;7.286;2023-04-02T04:53:12;99658.56;;;7.08;79.91
55538;BME280;41383;51.418;7.286;2023-04-02T04:55:42;99668.63;;;7.25;79.58
55538;BME280;41383;51.418;7.286;2023-04-02T04:58:20;99659.41;;;7.09;79.06
55538;BME280;41383;51.418;7.286;2023-04-02T05:03:38;99682.47;;;6.53;80.74
55538;BME280;41383;51.418;7.286;2023-04-02T05:06:22;99689.16;;;6.62;80.83
55538;BME280;41383;51.418;7.286;2023-04-02T05:08:51;99685.50;;;6.98;80.67
55538;BME280;41383;51.418;7.286;2023-04-02T05:11:34;99700.53;;;6.35;80.97
55538;BME280;41383;51.418;7.286;2023-04-02T05:14:19;99702.66;;;6.33;82.08
55538;BME280;41383;51.418;7.286;2023-04-02T05:17:03;99712.19;;;6.89;80.39
55538;BME280;41383;51.418;7.286;2023-04-02T05:19:37;99707.56;;;6.89;78.77
55538;BME280;41383;51.418;7.286;2023-04-02T05:25:14;99743.28;;;6.21;81.39
55538;BME280;41383;51.418;7.286;2023-04-02T05:32:58;99758.09;;;6.96;79.21
55538;BME280;41383;51.418;7.286;2023-04-02T05:35:30;99764.13;;;6.86;79.03
55538;BME280;41383;51.418;7.286;2023-04-02T05:37:58;99757.50;;;6.94;79.25
55538;BME280;41383;51.418;7.286;2023-04-02T05:40:30;99767.63;;;6.57;79.29
55538;BME280;41383;51.418;7.286;2023-04-02T05:42:59;99768.53;;;6.75;79.17
55538;BME280;41383;51.418;7.286;2023-04-02T05:45:29;99776.88;;;6.73;79.26
55538;BME280;41383;51.418;7.286;2023-04-02T05:47:57;99769.13;;;6.77;79.17
55538;BME280;41383;51.418;7.286;2023-04-02T05:50:33;99776.44;;;6.64;79.26
55538;BME280;41383;51.418;7.286;2023-04-02T05:53:26;99783.75;;;6.52;78.57
55538;BME280;41383;51.418;7.286;2023-04-02T05:55:57;99793.53;;;6.77;78.72
55538;BME280;41383;51.418;7.286;2023-04-02T05:58:40;99806.50;;;6.27;79.29
55538;BME280;41383;51.418;7.286;2023-04-02T06:04:00;99818.06;;;6.34;79.29
55538;BME280;41383;51.418;7.286;2023-04-02T06:09:50;99821.78;;;6.81;78.02
55538;BME280;41383;51.418;7.286;2023-04-02T06:12:43;99829.44;;;6.84;77.76
55538;BME280;41383;51.418;7.286;2023-04-02T06:15:15;99828.13;;;6.99;77.96
55538;BME280;41383;51.418;7.286;2023-04-02T06:17:52;99843.25;;;6.71;78.29
55538;BME280;41383;51.418;7.286;2023-04-02T06:20:22;99851.84;;;6.56;77.97
55538;BME280;41383;51.418;7.286;2023-04-02T06:22:52;99842.06;;;6.42;78.60
55538;BME280;41383;51.418;7.286;2023-04-02T06:25:23;99861.91;;;6.12;79.55
55538;BME280;41383;51.418;7.286;2023-04-02T06:27:51;99876.19;;;6.19;79.97
55538;BME280;41383;51.418;7.286;2023-04-02T06:30:22;99871.88;;;6.54;79.47
55538;BME280;41383;51.418;7.286;2023-04-02T06:32:48;99867.97;;;6.86;78.16
55538;BME280;41383;51.418;7.286;2023-04-02T06:35:14;99882.00;;;6.83;77.63
55538;BME280;41383;51.418;7.286;2023-04-02T06:37:43;99887.88;;;6.80;77.47
55538;BME280;41383;51.418;7.286;2023-04-02T06:43:16;99896.59;;;6.70;77.31
55538;BME280;41383;51.418;7.286;2023-04-02T06:45:45;99899.81;;;6.67;77.63
55538;BME280;41383;51.418;7.286;2023-04-02T06:48:18;99920.50;;;6.49;77.26
55538;BME280;41383;51.418;7.286;2023-04-02T06:50:49;99912.72;;;6.53;78.57
55538;BME280;41383;51.418;7.286;2023-04-02T06:53:29;99919.69;;;6.73;78.28
55538;BME280;41383;51.418;7.286;2023-04-02T06:56:21;99922.63;;;6.59;77.30
55538;BME280;41383;51.418;7.286;2023-04-02T06:58:49;99931.00;;;6.58;78.49
55538;BME280;41383;51.418;7.286;2023-04-02T07:01:22;99931.13;;;6.99;77.19
55538;BME280;41383;51.418;7.286;2023-04-02T07:03:48;99951.63;;;6.71;77.31
55538;BME280;41383;51.418;7.286;2023-04-02T07:06:18;99952.69;;;6.82;77.12
55538;BME280;41383;51.418;7.286;2023-04-02T07:08:44;99961.03;;;6.68;77.50
55538;BME280;41383;51.418;7.286;2023-04-02T07:11:19;99958.22;;;6.75;77.44
55538;BME280;41383;51.418;7.286;2023-04-02T07:13:46;99972.31;;;6.53;77.00
55538;BME280;41383;51.418;7.286;2023-04-02T07:16:19;99977.34;;;6.37;77.02
55538;BME280;41383;51.418;7.286;2023-04-02T07:18:45;99986.50;;;6.24;77.85
55538;BME280;41383;51.418;7.286;2023-04-02T07:21:11;99984.06;;;6.04;77.96
55538;BME280;41383;51.418;7.286;2023-04-02T07:23:36;99988.66;;;6.34;77.52
55538;BME280;41383;51.418;7.286;2023-04-02T07:26:03;99999.31;;;6.60;76.53
55538;BME280;41383;51.418;7.286;2023-04-02T07:28:29;100004.94;;;6.46;76.92
55538;BME280;41383;51.418;7.286;2023-04-02T07:30:55;100004.88;;;6.65;76.37
55538;BME280;41383;51.418;7.286;2023-04-02T07:33:23;100014.56;;;6.73;76.13
55538;BME280;41383;51.418;7.286;2023-04-02T07:35:49;100016.66;;;6.71;76.07
55538;BME280;41383;51.418;7.286;2023-04-02T07:38:15;100014.31;;;6.86;76.13
55538;BME280;41383;51.418;7.286;2023-04-02T07:40:41;100016.34;;;6.91;75.81
55538;BME280;41383;51.418;7.286;2023-04-02T07:43:07;100022.56;;;6.92;74.89
55538;BME280;41383;51.418;7.286;2023-04-02T07:45:32;100031.50;;;6.80;74.95
55538;BME280;41383;51.418;7.286;2023-04-02T07:48:04;100044.69;;;6.64;75.25
55538;BME280;41383;51.418;7.286;2023-04-02T07:50:30;100046.84;;;6.44;74.21
55538;BME280;41383;51.418;7.286;2023-04-02T07:52:55;100048.84;;;6.79;74.71
55538;BME280;41383;51.418;7.286;2023-04-02T07:55:21;100054.19;;;6.55;74.93
55538;BME280;41383;51.418;7.286;2023-04-02T07:57:54;100060.66;;;6.54;75.68
55538;BME280;41383;51.418;7.286;2023-04-02T08:00:20;100061.59;;;6.48;74.75
55538;BME280;41383;51.418;7.286;2023-04-02T08:02:46;100066.81;;;6.61;74.91
55538;BME280;41383;51.418;7.286;2023-04-02T08:05:12;100064.97;;;6.74;74.61
55538;BME280;41383;51.418;7.286;2023-04-02T08:07:38;100068.69;;;7.04;73.85
55538;BME280;41383;51.418;7.286;2023-04-02T08:10:04;100077.22;;;6.76;73.99
55538;BME280;41383;51.418;7.286;2023-04-02T08:12:30;100081.78;;;6.64;73.59
55538;BME280;41383;51.418;7.286;2023-04-02T08:14:55;100088.19;;;6.01;74.62
55538;BME280;41383;51.418;7.286;2023-04-02T08:17:21;100099.69;;;6.34;75.15
55538;BME280;41383;51.418;7.286;2023-04-02T08:19:46;100096.63;;;6.12;73.85
55538;BME280;41383;51.418;7.286;2023-04-02T08:22:11;100099.59;;;6.41;74.49
55538;BME280;41383;51.418;7.286;2023-04-02T08:24:37;100110.69;;;6.21;74.42
55538;BME280;41383;51.418;7.286;2023-04-02T08:27:02;100122.16;;;6.35;74.38
55538;BME280;41383;51.418;7.286;2023-04-02T08:29:29;100126.56;;;6.67;71.88
55538;BME280;41383;51.418;7.286;2023-04-02T08:31:57;100127.06;;;6.45;71.81
55538;BME280;41383;51.418;7.286;2023-04-02T08:34:22;100130.78;;;6.62;72.27
55538;BME280;41383;51.418;7.286;2023-04-02T08:36:48;100139.78;;;6.25;73.11
55538;BME280;41383;51.418;7.286;2023-04-02T08:39:13;100136.34;;;6.68;72.10
55538;BME280;41383;51.418;7.286;2023-04-02T08:42:51;100140.75;;;6.50;71.32
55538;BME280;41383;51.418;7.286;2023-04-02T08:45:07;100142.44;;;6.13;71.79
55538;BME280;41383;51.418;7.286;2023-04-02T08:47:38;100161.03;;;6.59;72.26
55538;BME280;41383;51.418;7.286;2023-04-02T08:50:41;100165.84;;;6.57;71.56
55538;BME280;41383;51.418;7.286;2023-04-02T08:53:16;100168.13;;;6.60;71.89
55538;BME280;41383;51.418;7.286;2023-04-02T08:55:56;100168.41;;;6.71;71.71
55538;BME280;41383;51.418;7.286;2023-04-02T09:01:06;100184.19;;;7.05;70.74
55538;BME280;41383;51.418;7.286;2023-04-02T09:03:39;100198.44;;;7.43;69.54
55538;BME280;41383;51.418;7.286;2023-04-02T09:06:08;100198.44;;;7.00;68.37
55538;BME280;41383;51.418;7.286;2023-04-02T09:08:37;100199.72;;;6.67;71.02
55538;BME280;41383;51.418;7.286;2023-04-02T09:11:26;100213.34;;;7.09;69.63
55538;BME280;41383;51.418;7.286;2023-04-02T09:13:59;100214.44;;;7.20;69.12
55538;BME280;41383;51.418;7.286;2023-04-02T09:16:43;100214.28;;;7.03;68.58
55538;BME280;41383;51.418;7.286;2023-04-02T09:19:14;100219.84;;;6.89;69.92
55538;BME280;41383;51.418;7.286;2023-04-02T09:21:44;100219.13;;;6.82;69.72
55538;BME280;41383;51.418;7.286;2023-04-02T09:24:11;100213.06;;;6.49;70.75
55538;BME280;41383;51.418;7.286;2023-04-02T09:26:39;100222.16;;;6.55;70.61
55538;BME280;41383;51.418;7.286;2023-04-02T09:31:42;100240.69;;;6.58;70.58
55538;BME280;41383;51.418;7.286;2023-04-02T09:34:34;100249.72;;;6.71;71.09
55538;BME280;41383;51.418;7.286;2023-04-02T09:37:19;100252.94;;;6.61;71.05
55538;BME280;41383;51.418;7.286;2023-04-02T09:39:49;100257.81;;;6.89;70.23
55538;BME280;41383;51.418;7.286;2023-04-02T09:42:34;100252.91;;;6.98;69.97
55538;BME280;41383;51.418;7.286;2023-04-02T09:45:20;100258.84;;;7.07;68.58
55538;BME280;41383;51.418;7.286;2023-04-02T09:47:46;100261.69;;;7.12;69.65
55538;BME280;41383;51.418;7.286;2023-04-02T09:50:38;100265.06;;;7.39;68.64
55538;BME280;41383;51.418;7.286;2023-04-02T09:53:26;100261.44;;;7.45;68.52
55538;BME280;41383;51.418;7.286;2023-04-02T09:58:37;100271.22;;;7.34;69.13
55538;BME280;41383;51.418;7.286;2023-04-02T10:01:03;100277.53;;;7.58;68.23
55538;BME280;41383;51.418;7.286;2023-04-02T10:03:31;100282.16;;;7.70;67.25
55538;BME280;41383;51.418;7.286;2023-04-02T10:06:14;100289.56;;;7.20;66.65
55538;BME280;41383;51.418;7.286;2023-04-02T10:08:41;100291.56;;;7.55;66.92
55538;BME280;41383;51.418;7.286;2023-04-02T10:11:17;100302.63;;;7.85;66.99
55538;BME280;41383;51.418;7.286;2023-04-02T10:16:30;100309.34;;;7.94;66.28
55538;BME280;41383;51.418;7.286;2023-04-02T10:19:08;100309.81;;;7.91;66.83
55538;BME280;41383;51.418;7.286;2023-04-02T10:21:39;100317.09;;;7.66;66.31
55538;BME280;41383;51.418;7.286;2023-04-02T10:24:12;100321.56;;;7.61;67.88
55538;BME280;41383;51.418;7.286;2023-04-02T10:26:58;100322.19;;;7.44;67.39
55538;BME280;41383;51.418;7.286;2023-04-02T10:32:17;100340.75;;;7.90;67.18
55538;BME280;41383;51.418;7.286;2023-04-02T10:35:07;100341.16;;;7.63;65.00
55538;BME280;41383;51.418;7.286;2023-04-02T10:37:51;100352.19;;;7.92;66.40
55538;BME280;41383;51.418;7.286;2023-04-02T10:46:11;100363.66;;;7.94;65.76
55538;BME280;41383;51.418;7.286;2023-04-02T10:54:09;100365.97;;;8.21;65.06
55538;BME280;41383;51.418;7.286;2023-04-02T10:56:37;100371.16;;;8.35;63.86
55538;BME280;41383;51.418;7.286;2023-04-02T10:59:26;100375.03;;;8.15;64.74
55538;BME280;41383;51.418;7.286;2023-04-02T11:01:55;100368.88;;;8.08;63.51
55538;BME280;41383;51.418;7.286;2023-04-02T11:04:30;100373.75;;;8.17;64.28
55538;BME280;41383;51.418;7.286;2023-04-02T11:07:01;100386.84;;;8.09;64.35
55538;BME280;41383;51.418;7.286;2023-04-02T11:09:32;100390.34;;;7.97;64.83
55538;BME280;41383;51.418;7.286;2023-04-02T11:12:03;100387.09;;;8.19;64.83
55538;BME280;41383;51.418;7.286;2023-04-02T11:14:30;100384.22;;;8.14;64.83
55538;BME280;41383;51.418;7.286;2023-04-02T11:16:57;100403.38;;;8.19;63.27
55538;BME280;41383;51.418;7.286;2023-04-02T11:19:32;100402.53;;;7.76;65.54
55538;BME280;41383;51.418;7.286;2023-04-02T11:22:01;100411.66;;;8.36;64.96
55538;BME280;41383;51.418;7.286;2023-04-02T11:27:05;100421.78;;;8.84;63.15
55538;BME280;41383;51.418;7.286;2023-04-02T11:29:32;100421.44;;;8.92;62.24
55538;BME280;41383;51.418;7.286;2023-04-02T11:32:25;100425.06;;;9.10;60.49
55538;BME280;41383;51.418;7.286;2023-04-02T11:37:38;100435.56;;;9.30;61.45
55538;BME280;41383;51.418;7.286;2023-04-02T11:42:39;100437.75;;;9.04;60.25
55538;BME280;41383;51.418;7.286;2023-04-02T11:50:28;100454.63;;;9.18;60.36
55538;BME280;41383;51.418;7.286;2023-04-02T11:52:58;100453.59;;;8.95;61.07
55538;BME280;41383;51.418;7.286;2023-04-02T11:55:29;100457.38;;;8.70;61.17
55538;BME280;41383;51.418;7.286;2023-04-02T11:58:28;100458.34;;;8.33;61.66
55538;BME280;41383;51.418;7.286;2023-04-02T12:01:12;100469.53;;;8.80;62.02
55538;BME280;41383;51.418;7.286;2023-04-02T12:04:06;100467.41;;;8.58;59.94
55538;BME280;41383;51.418;7.286;2023-04-02T12:09:22;100470.69;;;8.17;62.66
55538;BME280;41383;51.418;7.286;2023-04-02T12:11:49;100477.84;;;8.42;62.71
55538;BME280;41383;51.418;7.286;2023-04-02T12:14:40;100486.44;;;8.70;61.89
55538;BME280;41383;51.418;7.286;2023-04-02T12:17:31;100487.63;;;8.62;61.43
55538;BME280;41383;51.418;7.286;2023-04-02T12:20:00;100483.84;;;8.32;60.78
55538;BME280;41383;51.418;7.286;2023-04-02T12:22:29;100487.66;;;8.43;61.70
55538;BME280;41383;51.418;7.286;2023-04-02T12:24:59;100495.78;;;8.62;61.92
55538;BME280;41383;51.418;7.286;2023-04-02T12:27:27;100501.81;;;8.64;61.02
55538;BME280;41383;51.418;7.286;2023-04-02T12:30:10;100501.34;;;8.36;61.41
55538;BME280;41383;51.418;7.286;2023-04-02T12:32:35;100501.34;;;8.36;61.72
55538;BME280;41383;51.418;7.286;2023-04-02T12:35:02;100505.00;;;8.42;60.40
55538;BME280;41383;51.418;7.286;2023-04-02T12:37:29;100510.56;;;8.35;61.74
55538;BME280;41383;51.418;7.286;2023-04-02T12:40:00;100513.81;;;8.56;60.87
55538;BME280;41383;51.418;7.286;2023-04-02T12:42:32;100515.41;;;8.33;60.84
55538;BME280;41383;51.418;7.286;2023-04-02T12:44:58;100517.25;;;8.21;62.31
55538;BME280;41383;51.418;7.286;2023-04-02T12:47:24;100528.28;;;8.69;61.04
55538;BME280;41383;51.418;7.286;2023-04-02T12:49:51;100531.38;;;8.72;60.44
55538;BME280;41383;51.418;7.286;2023-04-02T12:52:19;100530.47;;;8.48;61.31
55538;BME280;41383;51.418;7.286;2023-04-02T12:54:51;100532.19;;;8.73;59.57
55538;BME280;41383;51.418;7.286;2023-04-02T12:59:52;100543.78;;;8.80;59.21
55538;BME280;41383;51.418;7.286;2023-04-02T13:02:23;100537.25;;;8.69;60.39
55538;BME280;41383;51.418;7.286;2023-04-02T13:04:57;100543.72;;;9.11;59.21
55538;BME280;41383;51.418;7.286;2023-04-02T13:07:31;100531.59;;;8.83;58.87
55538;BME280;41383;51.418;7.286;2023-04-02T13:09:58;100542.97;;;8.80;58.97
55538;BME280;41383;51.418;7.286;2023-04-02T13:12:38;100538.84;;;9.01;57.67
55538;BME280;41383;51.418;7.286;2023-04-02T13:15:19;100540.50;;;9.02;58.39
55538;BME280;41383;51.418;7.286;2023-04-02T13:18:00;100546.06;;;9.19;58.78
55538;BME280;41383;51.418;7.286;2023-04-02T13:23:00;100556.94;;;8.95;58.64
55538;BME280;41383;51.418;7.286;2023-04-02T13:25:31;100553.03;;;9.03;56.93
55538;BME280;41383;51.418;7.286;2023-04-02T13:27:59;100547.09;;;8.70;57.11
55538;BME280;41383;51.418;7.286;2023-04-02T13:30:27;100550.25;;;8.67;57.89
55538;BME280;41383;51.418;7.286;2023-04-02T13:32:53;100554.56;;;8.99;58.12
55538;BME280;41383;51.418;7.286;2023-04-02T13:35:18;100547.56;;;8.79;57.70
55538;BME280;41383;51.418;7.286;2023-04-02T13:37:43;100559.66;;;8.95;57.27
55538;BME280;41383;51.418;7.286;2023-04-02T13:40:12;100558.84;;;9.07;58.17
55538;BME280;41383;51.418;7.286;2023-04-02T13:42:40;100564.16;;;9.38;56.92
55538;BME280;41383;51.418;7.286;2023-04-02T13:45:17;100559.56;;;9.14;56.74
55538;BME280;41383;51.418;7.286;2023-04-02T13:47:45;100564.75;;;9.04;56.67
55538;BME280;41383;51.418;7.286;2023-04-02T13:50:15;100567.81;;;9.19;55.77
55538;BME280;41383;51.418;7.286;2023-04-02T13:52:41;100570.69;;;9.25;56.55
55538;BME280;41383;51.418;7.286;2023-04-02T13:55:06;100567.81;;;9.19;56.55
55538;BME280;41383;51.418;7.286;2023-04-02T13:57:32;100566.41;;;9.05;56.76
55538;BME280;41383;51.418;7.286;2023-04-02T13:59:58;100567.59;;;9.45;56.32
55538;BME280;41383;51.418;7.286;2023-04-02T14:02:24;100573.03;;;9.57;56.24
55538;BME280;41383;51.418;7.286;2023-04-02T14:04:55;100569.00;;;9.72;54.76
55538;BME280;41383;51.418;7.286;2023-04-02T14:07:53;100574.06;;;9.92;54.58
55538;BME280;41383;51.418;7.286;2023-04-02T14:16:17;100585.34;;;9.23;55.40
55538;BME280;41383;51.418;7.286;2023-04-02T14:19:04;100585.81;;;9.44;55.43
55538;BME280;41383;51.418;7.286;2023-04-02T14:21:50;100592.34;;;9.67;55.28
55538;BME280;41383;51.418;7.286;2023-04-02T14:27:52;100603.91;;;9.87;54.68
55538;BME280;41383;51.418;7.286;2023-04-02T14:30:47;100596.94;;;9.55;54.99
55538;BME280;41383;51.418;7.286;2023-04-02T14:33:21;100602.50;;;9.12;55.36
55538;BME280;41383;51.418;7.286;2023-04-02T14:35:56;100599.19;;;9.22;55.11
55538;BME280;41383;51.418;7.286;2023-04-02T14:38:35;100611.50;;;9.73;53.86
55538;BME280;41383;51.418;7.286;2023-04-02T14:41:18;100608.25;;;10.53;52.04
55538;BME280;41383;51.418;7.286;2023-04-02T14:43:52;100605.69;;;9.81;51.65
55538;BME280;41383;51.418;7.286;2023-04-02T14:46:18;100617.63;;;10.33;52.30
55538;BME280;41383;51.418;7.286;2023-04-02T14:48:59;100612.75;;;10.47;51.67
55538;BME280;41383;51.418;7.286;2023-04-02T14:51:36;100611.66;;;10.60;51.71
55538;BME280;41383;51.418;7.286;2023-04-02T14:54:30;100617.53;;;10.28;51.08
55538;BME280;41383;51.418;7.286;2023-04-02T14:57:03;100616.63;;;10.64;51.10
55538;BME280;41383;51.418;7.286;2023-04-02T14:59:51;100620.91;;;10.59;51.49
55538;BME280;41383;51.418;7.286;2023-04-02T15:02:26;100622.63;;;10.36;51.16
55538;BME280;41383;51.418;7.286;2023-04-02T15:04:58;100634.44;;;9.89;51.08
55538;BME280;41383;51.418;7.286;2023-04-02T15:07:30;100637.31;;;9.58;52.11
55538;BME280;41383;51.418;7.286;2023-04-02T15:10:19;100632.84;;;10.29;51.65
55538;BME280;41383;51.418;7.286;2023-04-02T15:12:47;100618.66;;;10.03;51.08
55538;BME280;41383;51.418;7.286;2023-04-02T15:15:19;100637.81;;;10.32;51.85
55538;BME280;41383;51.418;7.286;2023-04-02T15:17:46;100629.94;;;11.06;49.88
55538;BME280;41383;51.418;7.286;2023-04-02T15:20:14;100630.41;;;11.03;49.98
55538;BME280;41383;51.418;7.286;2023-04-02T15:23:10;100630.03;;;10.82;49.10